Time;durP1;ratioP1;P1;durP2;ratioP2;P2;SDS_P1;SDS_P2;PMS_P1;PMS_P2;Temp;Humidity;BMP_temperature;BMP_pressure;BME280_temperature;BME280_humidity;BME280_pressure;Samples;Min_cycle;Max_cycle;Signal;HPM_P1;HPM_P2
2021/05/01 00:00:27;;;;;;;15.90;10.57;;;486.80;1587.20;;;;;;4985065;28;20117;-72
2021/05/01 00:02:53;;;;;;;20.95;10.57;;;486.80;1587.20;;;;;;4982169;28;20031;-81
2021/05/01 00:05:18;;;;;;;17.38;10.90;;;486.80;1587.20;;;;;;4983747;28;20026;-75
2021/05/01 00:07:44;;;;;;;18.33;10.73;;;486.80;1587.20;;;;;;4985430;28;20042;-75
2021/05/01 00:10:11;;;;;;;18.50;10.07;;;486.70;1587.20;;;;;;4981587;28;20022;-76
2021/05/01 00:12:41;;;;;;;15.15;9.40;;;486.70;1587.20;;;;;;4984343;28;20110;-69
2021/05/01 00:15:09;;;;;;;14.52;10.27;;;486.70;1587.20;;;;;;4972066;28;20425;-70
2021/05/01 00:17:35;;;;;;;18.33;10.35;;;486.70;1587.20;;;;;;4983747;28;20027;-70
2021/05/01 00:20:01;;;;;;;18.55;10.40;;;486.60;1587.20;;;;;;4989377;28;20022;-77
2021/05/01 00:22:26;;;;;;;19.67;10.98;;;486.60;1612.80;;;;;;4986157;28;20026;-71
2021/05/01 00:24:52;;;;;;;16.27;11.60;;;486.60;1612.80;;;;;;4985247;28;20068;-75
2021/05/01 00:27:18;;;;;;;20.40;11.77;;;486.50;1612.80;;;;;;4986191;28;20038;-73
2021/05/01 00:29:43;;;;;;;17.92;11.23;;;486.50;1612.80;;;;;;4973333;28;20169;-78
2021/05/01 00:32:09;;;;;;;17.50;10.80;;;486.50;1612.80;;;;;;4984746;28;20142;-76
2021/05/01 00:34:35;;;;;;;20.42;11.43;;;486.50;1612.80;;;;;;4982811;28;20098;-72
2021/05/01 00:37:02;;;;;;;17.92;11.10;;;486.40;1612.80;;;;;;4987290;28;20018;-72
2021/05/01 00:39:27;;;;;;;15.02;11.10;;;486.40;1612.80;;;;;;4981089;28;20029;-74
2021/05/01 00:41:53;;;;;;;18.85;10.40;;;486.40;1612.80;;;;;;4986622;28;20062;-72
2021/05/01 00:44:19;;;;;;;17.92;10.55;;;486.40;1612.80;;;;;;4980854;28;20031;-70
2021/05/01 00:46:46;;;;;;;18.02;9.95;;;486.40;1638.40;;;;;;4976845;28;20051;-69
2021/05/01 00:49:11;;;;;;;18.05;10.20;;;486.40;1612.80;;;;;;4988415;28;20031;-70
2021/05/01 00:51:37;;;;;;;16.80;10.52;;;461.70;1612.80;;;;;;4993651;28;20080;-76
2021/05/01 00:54:03;;;;;;;14.13;9.20;;;461.70;1612.80;;;;;;4992334;28;20113;-76
2021/05/01 00:56:29;;;;;;;14.40;8.68;;;461.70;1612.80;;;;;;4988769;28;20380;-76
2021/05/01 00:58:55;;;;;;;12.02;8.55;;;461.60;1612.80;;;;;;4994362;28;20029;-73
2021/05/01 01:01:23;;;;;;;12.77;8.20;;;461.60;1612.80;;;;;;4997126;28;20350;-68
2021/05/01 01:03:50;;;;;;;15.18;9.10;;;461.60;1612.80;;;;;;4997071;28;20022;-71
2021/05/01 01:06:16;;;;;;;16.27;9.02;;;461.60;1612.80;;;;;;4996745;28;20365;-67
2021/05/01 01:08:44;;;;;;;13.63;8.63;;;461.60;1638.40;;;;;;4997050;28;20046;-71
2021/05/01 01:11:10;;;;;;;15.57;9.00;;;461.60;1638.40;;;;;;4997182;28;20097;-77
2021/05/01 01:13:36;;;;;;;17.75;9.40;;;461.60;1638.40;;;;;;4996726;28;20026;-73
2021/05/01 01:16:02;;;;;;;16.33;9.23;;;461.60;1638.40;;;;;;4996924;28;20026;-76
2021/05/01 01:18:28;;;;;;;13.57;8.52;;;461.50;1638.40;;;;;;4996951;28;20030;-68
2021/05/01 01:20:54;;;;;;;14.05;8.80;;;461.50;1638.40;;;;;;4978901;28;20031;-68
2021/05/01 01:23:20;;;;;;;15.98;7.50;;;461.50;1638.40;;;;;;4996384;28;20061;-69
2021/05/01 01:25:46;;;;;;;12.88;7.70;;;461.50;1612.80;;;;;;4996801;28;20022;-68
2021/05/01 01:28:12;;;;;;;16.65;7.60;;;461.50;1612.80;;;;;;4978962;28;20065;-69
2021/05/01 01:30:38;;;;;;;12.52;7.25;;;461.50;1612.80;;;;;;4978756;28;20045;-75
2021/05/01 01:33:09;;;;;;;12.82;6.65;;;461.50;1612.80;;;;;;4979089;28;20022;-69
2021/05/01 01:35:36;;;;;;;9.52;6.15;;;461.60;1587.20;;;;;;4996399;28;20129;-74
2021/05/01 01:38:03;;;;;;;10.00;5.97;;;461.60;1587.20;;;;;;4996879;28;20029;-81
2021/05/01 01:40:29;;;;;;;10.55;5.97;;;461.50;1587.20;;;;;;4997042;28;20030;-66
2021/05/01 01:42:55;;;;;;;10.52;4.88;;;461.50;1587.20;;;;;;4996216;28;20031;-73
2021/05/01 01:45:24;;;;;;;14.85;5.75;;;461.60;1587.20;;;;;;4996581;28;20026;-78
2021/05/01 01:47:50;;;;;;;15.80;5.72;;;461.60;1587.20;;;;;;4980469;28;20055;-67
2021/05/01 01:50:18;;;;;;;19.13;6.22;;;461.60;1612.80;;;;;;4976972;28;20030;-74
2021/05/01 01:52:44;;;;;;;14.35;5.38;;;461.60;1587.20;;;;;;4976600;28;20042;-74
2021/05/01 01:55:13;;;;;;;27.58;6.65;;;461.60;1587.20;;;;;;4975660;28;20497;-78
2021/05/01 01:57:39;;;;;;;32.63;7.15;;;461.60;1612.80;;;;;;4957628;28;20039;-74
2021/05/01 02:00:08;;;;;;;20.75;6.05;;;461.60;1612.80;;;;;;4976179;28;20098;-68
2021/05/01 02:02:34;;;;;;;15.27;5.85;;;461.60;1612.80;;;;;;4976068;28;20086;-68
2021/05/01 02:04:59;;;;;;;16.48;6.13;;;461.60;1587.20;;;;;;4976039;28;20474;-74
2021/05/01 02:07:25;;;;;;;17.33;6.55;;;461.60;1587.20;;;;;;4975016;28;20430;-75
2021/05/01 02:09:50;;;;;;;14.68;6.00;;;461.60;1587.20;;;;;;4974010;28;20031;-71
2021/05/01 02:12:16;;;;;;;11.98;5.45;;;461.60;1612.80;;;;;;4975892;28;20109;-76
2021/05/01 02:14:42;;;;;;;13.65;5.85;;;461.60;1587.20;;;;;;4976073;28;20567;-69
2021/05/01 02:17:08;;;;;;;13.45;6.03;;;461.60;1587.20;;;;;;4976069;28;20066;-69
2021/05/01 02:19:33;;;;;;;11.65;5.00;;;461.60;1612.80;;;;;;4976382;28;20023;-73
2021/05/01 02:21:59;;;;;;;12.90;5.53;;;461.60;1612.80;;;;;;4975414;28;20026;-76
2021/05/01 02:24:25;;;;;;;14.82;6.13;;;461.60;1587.20;;;;;;4975863;28;20078;-68
2021/05/01 02:26:51;;;;;;;11.57;5.65;;;461.60;1587.20;;;;;;4975257;28;20023;-70
2021/05/01 02:29:16;;;;;;;11.63;5.75;;;461.70;1612.80;;;;;;4975237;28;20037;-68
2021/05/01 02:31:42;;;;;;;14.30;5.60;;;461.60;1612.80;;;;;;4975550;28;20030;-69
2021/05/01 02:34:08;;;;;;;14.95;6.05;;;461.60;1612.80;;;;;;4974488;28;20355;-74
2021/05/01 02:36:34;;;;;;;10.55;6.15;;;461.60;1612.80;;;;;;4973848;28;20027;-73
2021/05/01 02:39:00;;;;;;;15.63;6.30;;;461.70;1612.80;;;;;;4975388;28;20019;-68
2021/05/01 02:41:25;;;;;;;16.55;5.93;;;461.60;1612.80;;;;;;4975329;28;20018;-66
2021/05/01 02:43:51;;;;;;;12.68;6.22;;;461.60;1612.80;;;;;;4974866;28;20030;-75
2021/05/01 02:46:17;;;;;;;13.52;6.07;;;461.60;1612.80;;;;;;4975731;28;20512;-71
2021/05/01 02:48:43;;;;;;;10.73;6.10;;;461.60;1612.80;;;;;;4975464;28;20038;-72
2021/05/01 02:51:09;;;;;;;12.07;5.90;;;461.60;1612.80;;;;;;4975489;28;20023;-69
2021/05/01 02:53:35;;;;;;;11.85;6.40;;;461.60;1638.40;;;;;;4975258;28;20030;-70
2021/05/01 02:56:00;;;;;;;11.18;6.25;;;461.60;1638.40;;;;;;4975224;28;20508;-69
2021/05/01 02:58:27;;;;;;;11.98;6.78;;;461.60;1638.40;;;;;;4975143;28;20105;-71
2021/05/01 03:00:54;;;;;;;11.27;6.32;;;461.60;1638.40;;;;;;4974622;28;20030;-76
2021/05/01 03:03:20;;;;;;;13.00;6.43;;;461.60;1638.40;;;;;;4956725;28;20030;-74
2021/05/01 03:05:45;;;;;;;12.73;6.80;;;461.60;1638.40;;;;;;4974482;28;20082;-71
2021/05/01 03:08:11;;;;;;;11.38;6.15;;;461.60;1638.40;;;;;;4974861;28;20030;-79
2021/05/01 03:10:37;;;;;;;9.88;6.55;;;461.60;1638.40;;;;;;4974269;28;20018;-70
2021/05/01 03:13:03;;;;;;;13.05;6.88;;;461.60;1638.40;;;;;;4973917;28;20062;-69
2021/05/01 03:15:28;;;;;;;15.77;7.28;;;461.60;1664.00;;;;;;4974198;28;20058;-72
2021/05/01 03:17:55;;;;;;;10.90;7.18;;;461.60;1664.00;;;;;;4956606;28;20054;-70
2021/05/01 03:20:20;;;;;;;12.68;6.88;;;461.60;1664.00;;;;;;4973904;28;20143;-69
2021/05/01 03:22:47;;;;;;;13.43;6.47;;;461.60;1664.00;;;;;;4974162;28;20094;-72
2021/05/01 03:25:14;;;;;;;19.15;7.13;;;461.60;1664.00;;;;;;4974638;28;20035;-70
2021/05/01 03:27:41;;;;;;;14.32;7.20;;;461.60;1664.00;;;;;;4974430;28;20038;-72
2021/05/01 03:30:10;;;;;;;14.63;6.63;;;461.50;1664.00;;;;;;4974809;28;20030;-71
2021/05/01 03:32:36;;;;;;;12.90;6.70;;;461.50;1664.00;;;;;;4974722;28;20038;-76
2021/05/01 03:35:03;;;;;;;18.73;7.20;;;461.50;1664.00;;;;;;4975196;28;20030;-70
2021/05/01 03:37:29;;;;;;;14.98;6.80;;;461.50;1664.00;;;;;;4974878;28;20027;-72
2021/05/01 03:39:55;;;;;;;11.88;7.53;;;461.50;1689.60;;;;;;4975054;28;20481;-70
2021/05/01 03:42:20;;;;;;;9.85;6.55;;;461.50;1689.60;;;;;;4974840;28;20126;-74
2021/05/01 03:44:46;;;;;;;15.25;7.38;;;461.50;1715.20;;;;;;4974367;28;20042;-71
2021/05/01 03:47:12;;;;;;;14.52;7.35;;;461.50;1715.20;;;;;;4974556;28;20397;-71
2021/05/01 03:49:37;;;;;;;11.50;5.82;;;461.50;1715.20;;;;;;4957398;28;20030;-74
2021/05/01 03:52:04;;;;;;;10.45;6.32;;;461.50;1740.80;;;;;;4974802;28;20023;-71
2021/05/01 03:54:30;;;;;;;13.75;6.85;;;461.40;1740.80;;;;;;4974831;28;20037;-71
2021/05/01 03:56:56;;;;;;;12.95;6.50;;;461.40;1740.80;;;;;;4974716;28;20031;-73
2021/05/01 03:59:21;;;;;;;12.70;6.20;;;461.30;1740.80;;;;;;4974599;28;20493;-73
2021/05/01 04:01:49;;;;;;;10.15;5.80;;;461.30;1740.80;;;;;;4957065;28;20113;-72
2021/05/01 04:04:15;;;;;;;15.20;7.22;;;461.30;1740.80;;;;;;4974588;28;20058;-72
2021/05/01 04:06:41;;;;;;;15.50;6.35;;;461.30;1766.40;;;;;;4974406;28;20054;-72
2021/05/01 04:09:06;;;;;;;15.55;7.45;;;461.20;1766.40;;;;;;4974401;28;20037;-72
2021/05/01 04:11:33;;;;;;;21.40;8.02;;;461.30;1792.00;;;;;;4957364;28;20027;-70
2021/05/01 04:13:58;;;;;;;27.75;8.35;;;461.20;1817.60;;;;;;4974394;28;20561;-69
2021/05/01 04:16:24;;;;;;;22.63;7.90;;;461.20;1817.60;;;;;;4957213;28;20110;-72
2021/05/01 04:18:50;;;;;;;24.55;8.80;;;461.20;1843.20;;;;;;4974538;28;20054;-70
2021/05/01 04:21:16;;;;;;;15.23;7.10;;;461.20;1843.20;;;;;;4974595;28;20023;-70
2021/05/01 04:23:42;;;;;;;17.80;7.55;;;461.20;1817.60;;;;;;4974519;28;20082;-70
2021/05/01 04:26:08;;;;;;;16.60;7.82;;;461.20;1843.20;;;;;;4974843;28;20054;-70
2021/05/01 04:28:34;;;;;;;14.13;6.75;;;461.10;1843.20;;;;;;4974195;28;20070;-70
2021/05/01 04:30:59;;;;;;;12.52;6.95;;;461.10;1843.20;;;;;;4974219;28;20046;-70
2021/05/01 04:33:26;;;;;;;12.27;7.43;;;461.10;1843.20;;;;;;4974531;28;20030;-70
2021/05/01 04:35:52;;;;;;;16.83;7.15;;;461.10;1843.20;;;;;;4956919;28;20130;-70
2021/05/01 04:38:18;;;;;;;10.27;6.53;;;461.10;1868.80;;;;;;4974510;28;20126;-70
2021/05/01 04:40:44;;;;;;;9.85;6.35;;;461.10;1868.80;;;;;;4974360;28;20469;-70
2021/05/01 04:43:11;;;;;;;9.15;6.63;;;461.10;1868.80;;;;;;4974206;28;20030;-70
2021/05/01 04:45:38;;;;;;;12.68;6.68;;;461.10;1868.80;;;;;;4974104;28;20078;-70
2021/05/01 04:48:06;;;;;;;13.48;7.13;;;461.00;1868.80;;;;;;4974199;28;20042;-70
2021/05/01 04:50:32;;;;;;;13.07;7.18;;;461.00;1868.80;;;;;;4957004;28;20379;-72
2021/05/01 04:52:57;;;;;;;15.80;7.60;;;461.00;1894.40;;;;;;4974229;28;20597;-73
2021/05/01 04:55:25;;;;;;;15.23;8.68;;;461.00;1894.40;;;;;;4974498;28;20098;-71
2021/05/01 04:57:52;;;;;;;16.33;9.32;;;461.00;1894.40;;;;;;4976200;28;20030;-70
2021/05/01 05:00:20;;;;;;;17.17;10.20;;;461.10;1894.40;;;;;;4977531;28;20385;-68
2021/05/01 05:02:46;;;;;;;16.38;9.48;;;461.10;1894.40;;;;;;4977751;28;20085;-69
2021/05/01 05:05:14;;;;;;;13.80;8.68;;;461.10;1894.40;;;;;;4977015;28;20536;-71
2021/05/01 05:07:40;;;;;;;13.98;8.38;;;461.10;1920.00;;;;;;4976087;28;20034;-70
2021/05/01 05:10:07;;;;;;;14.15;9.05;;;461.10;1894.40;;;;;;4976143;28;20018;-72
2021/05/01 05:12:33;;;;;;;14.95;8.80;;;461.10;1920.00;;;;;;4958909;28;20049;-71
2021/05/01 05:14:59;;;;;;;13.73;7.90;;;461.20;1894.40;;;;;;4986013;28;20033;-70
2021/05/01 05:17:25;;;;;;;16.75;7.70;;;461.20;1920.00;;;;;;4986676;28;20102;-80
2021/05/01 05:19:51;;;;;;;20.88;8.95;;;461.20;1920.00;;;;;;4979432;28;20031;-70
2021/05/01 05:22:17;;;;;;;13.27;8.00;;;461.20;1920.00;;;;;;4985879;28;20034;-69
2021/05/01 05:24:42;;;;;;;18.90;7.95;;;461.30;1920.00;;;;;;4997104;28;20038;-74
2021/05/01 05:27:09;;;;;;;13.98;8.30;;;461.30;1920.00;;;;;;4996571;28;20054;-72
2021/05/01 05:29:35;;;;;;;20.33;7.82;;;461.30;1920.00;;;;;;4996507;28;20037;-73
2021/05/01 05:32:04;;;;;;;19.85;8.18;;;461.40;1920.00;;;;;;4996796;28;20425;-73
2021/05/01 05:34:30;;;;;;;13.35;7.93;;;461.40;1894.40;;;;;;4996714;28;20033;-73
2021/05/01 05:36:56;;;;;;;13.38;7.03;;;461.50;1894.40;;;;;;4996424;28;20053;-76
2021/05/01 05:39:22;;;;;;;18.20;7.40;;;461.50;1894.40;;;;;;4994813;28;20066;-72
2021/05/01 05:41:48;;;;;;;21.52;7.85;;;461.50;1894.40;;;;;;4976491;28;20027;-72
2021/05/01 05:44:13;;;;;;;28.85;7.78;;;461.60;1894.40;;;;;;4976840;28;20042;-76
2021/05/01 05:46:39;;;;;;;17.48;7.38;;;461.60;1894.40;;;;;;4976535;28;20042;-77
2021/05/01 05:49:05;;;;;;;15.05;7.43;;;461.60;1894.40;;;;;;4976850;28;20117;-82
2021/05/01 05:51:31;;;;;;;14.40;7.32;;;461.70;1894.40;;;;;;4959938;28;20362;-82
2021/05/01 05:53:57;;;;;;;10.65;7.05;;;461.60;1894.40;;;;;;4977206;28;20157;-75
2021/05/01 05:56:24;;;;;;;15.23;7.50;;;461.70;1894.40;;;;;;4976873;28;20094;-82
2021/05/01 05:59:08;;;;;;;12.20;7.55;;;461.70;1894.40;;;;;;4975604;28;20054;-82
2021/05/01 06:01:37;;;;;;;14.48;7.65;;;461.70;1894.40;;;;;;4977251;28;20369;-79
2021/05/01 06:04:13;;;;;;;15.20;7.53;;;461.70;1894.40;;;;;;4976883;28;20081;-77
2021/05/01 06:06:44;;;;;;;14.23;8.82;;;486.40;1894.40;;;;;;4976700;28;20536;-76
2021/05/01 06:09:12;;;;;;;16.42;8.65;;;486.40;1894.40;;;;;;4976356;28;20495;-77
2021/05/01 06:11:39;;;;;;;13.25;8.77;;;486.40;1894.40;;;;;;4976357;28;20027;-77
2021/05/01 06:14:05;;;;;;;14.25;7.85;;;486.40;1920.00;;;;;;4976156;28;20051;-76
2021/05/01 06:16:31;;;;;;;14.00;7.15;;;486.50;1920.00;;;;;;4975973;28;20499;-78
2021/05/01 06:18:58;;;;;;;14.95;7.60;;;486.50;1920.00;;;;;;4975923;28;20473;-77
2021/05/01 06:21:24;;;;;;;12.77;7.28;;;486.60;1894.40;;;;;;4976186;28;20030;-76
2021/05/01 06:23:50;;;;;;;14.27;7.25;;;486.60;1894.40;;;;;;4976409;28;20032;-72
2021/05/01 06:26:16;;;;;;;11.48;7.13;;;486.70;1894.40;;;;;;4988080;28;20194;-79
2021/05/01 06:28:43;;;;;;;11.98;6.88;;;486.70;1894.40;;;;;;4988995;28;20034;-76
2021/05/01 06:31:09;;;;;;;15.05;7.32;;;486.70;1894.40;;;;;;4995567;28;20109;-76
2021/05/01 06:33:41;;;;;;;15.40;7.90;;;486.80;1894.40;;;;;;4995464;28;20053;-73
2021/05/01 06:36:09;;;;;;;15.50;8.38;;;486.90;1894.40;;;;;;4994916;28;20117;-76
2021/05/01 06:38:36;;;;;;;13.65;8.23;;;486.90;1894.40;;;;;;4995361;28;20019;-77
2021/05/01 06:41:07;;;;;;;13.95;7.85;;;487.10;1894.40;;;;;;4995399;28;20377;-76
2021/05/01 06:43:59;;;;;;;12.75;8.02;;;487.10;1894.40;;;;;;4983637;28;20034;-77
2021/05/01 06:46:27;;;;;;;13.18;6.95;;;487.20;1894.40;;;;;;4983878;28;20506;-77
2021/05/01 06:48:57;;;;;;;11.35;6.93;;;487.30;1868.80;;;;;;4983169;28;20052;-71
2021/05/01 06:51:23;;;;;;;12.73;6.63;;;512.00;1868.80;;;;;;4981667;28;20106;-75
2021/05/01 06:53:49;;;;;;;18.20;7.22;;;512.00;1843.20;;;;;;4983274;28;20037;-73
2021/05/01 06:56:16;;;;;;;11.63;7.28;;;512.10;1817.60;;;;;;4984792;28;20109;-76
2021/05/01 06:58:43;;;;;;;12.48;7.35;;;512.20;1843.20;;;;;;4984849;28;20061;-76
2021/05/01 07:01:11;;;;;;;10.43;7.30;;;512.40;1817.60;;;;;;4987585;28;20029;-87
2021/05/01 07:03:41;;;;;;;14.63;6.82;;;512.50;1817.60;;;;;;4975731;28;20031;-77
2021/05/01 07:06:08;;;;;;;53.60;9.23;;;512.70;1817.60;;;;;;4975387;28;20138;-71
2021/05/01 07:08:34;;;;;;;27.98;8.05;;;512.90;1792.00;;;;;;4973902;28;20050;-74
2021/05/01 07:11:01;;;;;;;54.85;8.98;;;537.60;1817.60;;;;;;4980708;28;20161;-78
2021/05/01 07:13:27;;;;;;;76.95;12.45;;;537.70;1792.00;;;;;;4994918;28;20033;-83
2021/05/01 07:15:59;;;;;;;53.28;9.95;;;538.00;1817.60;;;;;;4995095;28;20022;-82
2021/05/01 07:18:26;;;;;;;32.10;9.20;;;538.10;1792.00;;;;;;4977371;28;20039;-75
2021/05/01 07:20:55;;;;;;;21.75;8.52;;;538.30;1766.40;;;;;;4994479;28;20493;-81
2021/05/01 07:23:21;;;;;;;12.50;7.72;;;538.50;1740.80;;;;;;4995065;28;20384;-82
2021/05/01 07:25:47;;;;;;;45.05;9.05;;;563.30;1740.80;;;;;;4994685;28;20105;-77
2021/05/01 07:28:40;;;;;;;23.77;8.10;;;563.40;1715.20;;;;;;4994137;28;20044;-77
2021/05/01 07:31:08;;;;;;;35.95;9.57;;;563.60;1715.20;;;;;;4896864;29;20037;-74
2021/05/01 07:33:46;;;;;;;28.65;7.90;;;563.80;1715.20;;;;;;4896817;29;20383;-78
2021/05/01 07:36:18;;;;;;;19.40;7.68;;;564.10;1664.00;;;;;;4896733;29;20047;-76
2021/05/01 07:38:45;;;;;;;14.45;8.20;;;588.90;1664.00;;;;;;4897011;29;20028;-75
2021/05/01 07:41:15;;;;;;;15.05;7.47;;;589.10;1664.00;;;;;;4896630;29;20107;-77
2021/05/01 07:43:49;;;;;;;13.55;7.20;;;589.30;1638.40;;;;;;4896462;29;20032;-77
2021/05/01 07:46:19;;;;;;;103.35;71.85;;;589.40;1638.40;;;;;;4895896;29;20061;-77
2021/05/01 07:48:47;;;;;;;74.28;41.78;;;589.70;1612.80;;;;;;4894007;29;20049;-74
2021/05/01 07:51:13;;;;;;;53.50;27.83;;;614.50;1587.20;;;;;;4896472;29;20044;-77
2021/05/01 07:53:38;;;;;;;34.83;14.43;;;614.80;1561.60;;;;;;4896443;29;20067;-76
2021/05/01 07:56:04;;;;;;;23.05;8.90;;;615.00;1536.00;;;;;;4896965;29;20037;-76
2021/05/01 07:58:30;;;;;;;27.60;8.30;;;615.20;1536.00;;;;;;4880411;29;20029;-76
2021/05/01 08:00:56;;;;;;;12.68;7.72;;;640.00;1484.80;;;;;;4896575;29;20036;-76
2021/05/01 08:03:22;;;;;;;18.42;7.82;;;640.20;1484.80;;;;;;4896531;29;20360;-77
2021/05/01 08:05:49;;;;;;;16.77;8.23;;;640.50;1459.20;;;;;;4896649;29;20029;-75
2021/05/01 08:08:16;;;;;;;19.67;7.53;;;640.70;1459.20;;;;;;4953232;28;20121;-75
2021/05/01 08:10:42;;;;;;;13.55;7.35;;;640.90;1433.60;;;;;;4994171;28;20361;-77
2021/05/01 08:13:08;;;;;;;13.20;7.50;;;665.80;1433.60;;;;;;4994087;28;20033;-76
2021/05/01 08:15:34;;;;;;;14.07;6.45;;;666.00;1433.60;;;;;;4994122;28;20105;-76
2021/05/01 08:18:01;;;;;;;54.28;13.35;;;666.20;1408.00;;;;;;4994095;28;20042;-75
2021/05/01 08:20:28;;;;;;;25.30;9.13;;;666.50;1382.40;;;;;;4973545;28;20492;-77
2021/05/01 08:22:55;;;;;;;28.65;15.93;;;691.30;1356.80;;;;;;4976741;28;20039;-74
2021/05/01 08:25:22;;;;;;;29.30;11.43;;;691.40;1356.80;;;;;;4974702;28;20026;-77
2021/05/01 08:27:47;;;;;;;22.25;9.30;;;691.60;1331.20;;;;;;4974691;28;20081;-77
2021/05/01 08:30:16;;;;;;;19.30;9.32;;;691.80;1305.60;;;;;;4974686;28;20424;-76
2021/05/01 08:32:43;;;;;;;18.65;7.80;;;691.90;1305.60;;;;;;4976542;28;20039;-77
2021/05/01 08:35:09;;;;;;;12.43;7.05;;;692.10;1305.60;;;;;;4978598;28;20034;-77
2021/05/01 08:37:35;;;;;;;13.40;7.03;;;716.80;1331.20;;;;;;4978382;28;20046;-77
2021/05/01 08:40:01;;;;;;;33.33;12.40;;;717.00;1280.00;;;;;;4984685;28;20105;-76
2021/05/01 08:42:27;;;;;;;40.17;10.63;;;717.20;1280.00;;;;;;4976318;28;20054;-77
2021/05/01 08:44:56;;;;;;;24.55;9.10;;;717.30;1280.00;;;;;;4981807;28;20037;-76
2021/05/01 08:47:22;;;;;;;17.17;8.05;;;717.50;1254.40;;;;;;4993890;28;20052;-73
2021/05/01 08:49:48;;;;;;;35.65;11.88;;;717.60;1228.80;;;;;;4986850;28;20026;-76
2021/05/01 08:52:14;;;;;;;18.50;8.05;;;717.70;1228.80;;;;;;4994612;28;20385;-70
2021/05/01 08:54:39;;;;;;;63.20;26.75;;;742.40;1280.00;;;;;;4997018;28;20032;-73
2021/05/01 08:57:30;;;;;;;32.67;16.60;;;742.50;1228.80;;;;;;4984860;28;20058;-76
2021/05/01 08:59:56;;;;;;;25.50;11.52;;;742.60;1228.80;;;;;;4992331;28;20022;-74
2021/05/01 09:02:27;;;;;;;21.67;7.97;;;742.80;1203.20;;;;;;4969864;28;20111;-77
2021/05/01 09:04:54;;;;;;;25.42;11.25;;;742.80;1177.60;;;;;;4975885;28;20019;-76
2021/05/01 09:07:20;;;;;;;16.83;8.55;;;743.00;1177.60;;;;;;4977092;28;20078;-72
2021/05/01 09:09:57;;;;;;;15.50;10.05;;;743.00;1126.40;;;;;;4980738;28;20037;-75
2021/05/01 09:12:44;;;;;;;19.10;10.23;;;743.10;1126.40;;;;;;4979843;28;20019;-76
2021/05/01 09:15:21;;;;;;;20.80;12.73;;;743.10;1152.00;;;;;;4975375;28;20101;-75
2021/05/01 09:17:48;;;;;;;31.45;10.25;;;743.30;1126.40;;;;;;4993020;28;20026;-74
2021/05/01 09:20:16;;;;;;;20.67;9.85;;;768.00;1126.40;;;;;;4996489;28;20053;-77
2021/05/01 09:23:05;;;;;;;45.78;32.25;;;768.20;1126.40;;;;;;4996998;28;20089;-74
2021/05/01 09:25:45;;;;;;;38.35;25.50;;;768.20;1100.80;;;;;;4997007;28;20038;-77
2021/05/01 09:28:14;;;;;;;17.92;11.93;;;768.30;1100.80;;;;;;4996758;28;20034;-75
2021/05/01 09:30:42;;;;;;;16.77;9.00;;;768.50;1100.80;;;;;;4996712;28;20023;-76
2021/05/01 09:33:23;;;;;;;13.00;7.72;;;768.50;1075.20;;;;;;4997074;28;20022;-76
2021/05/01 09:36:14;;;;;;;17.73;9.80;;;768.70;1100.80;;;;;;4981319;28;20027;-77
2021/05/01 09:39:10;;;;;;;18.00;10.05;;;768.70;1075.20;;;;;;4976845;28;20027;-76
2021/05/01 09:41:37;;;;;;;37.67;15.23;;;768.90;1075.20;;;;;;4925102;29;20157;-74
2021/05/01 09:44:16;;;;;;;69.63;30.15;;;793.60;1100.80;;;;;;4916920;29;20526;-75
2021/05/01 09:46:43;;;;;;;32.70;17.52;;;793.70;1075.20;;;;;;4919857;29;20054;-71
2021/05/01 09:49:20;;;;;;;24.20;13.48;;;793.80;1075.20;;;;;;4925860;29;20110;-74
2021/05/01 09:51:57;;;;;;;17.85;8.63;;;793.80;1075.20;;;;;;4923746;29;20078;-74
2021/05/01 09:54:31;;;;;;;14.40;8.38;;;793.90;1100.80;;;;;;4926131;29;20625;-71
2021/05/01 09:56:57;;;;;;;;;;;794.10;1075.20;;;;;;4923746;29;20039;-74
2021/05/01 09:59:55;;;;;;;17.85;7.05;;;794.00;1049.60;;;;;;4923547;29;19917;-74
2021/05/01 10:02:33;;;;;;;18.63;6.97;;;793.80;1049.60;;;;;;4833891;29;20038;-74
2021/05/01 10:05:12;;;;;;;17.83;7.80;;;793.70;1075.20;;;;;;4826966;29;20041;-74
2021/05/01 10:07:45;;;;;;;16.83;7.45;;;768.90;1024.00;;;;;;4842219;29;20054;-74
2021/05/01 10:10:11;;;;;;;12.67;7.07;;;768.90;1024.00;;;;;;4842568;29;20065;-72
2021/05/01 10:12:40;;;;;;;10.02;6.78;;;768.90;1024.00;;;;;;4842345;29;20501;-71
2021/05/01 10:15:17;;;;;;;11.38;6.15;;;768.90;1024.00;;;;;;4842391;29;20038;-73
2021/05/01 10:17:48;;;;;;;15.05;6.13;;;768.90;1049.60;;;;;;4848194;29;20058;-71
2021/05/01 10:20:15;;;;;;;15.85;5.38;;;768.70;1024.00;;;;;;4863554;29;20033;-71
2021/05/01 10:22:45;;;;;;;15.30;6.47;;;768.50;1049.60;;;;;;4879349;29;20112;-72
2021/05/01 10:25:20;;;;;;;11.95;6.40;;;768.30;1100.80;;;;;;4879158;29;20040;-71
2021/05/01 10:27:59;;;;;;;124.80;17.45;;;768.20;1100.80;;;;;;4878970;29;20049;-72
2021/05/01 10:30:33;;;;;;;71.25;12.88;;;768.00;1100.80;;;;;;4884447;29;20115;-74
2021/05/01 10:33:20;;;;;;;62.45;25.35;;;768.00;1075.20;;;;;;4895778;29;20650;-71
2021/05/01 10:35:51;;;;;;;37.47;20.13;;;768.00;1075.20;;;;;;4892143;29;20032;-71
2021/05/01 10:38:22;;;;;;;33.22;14.57;;;768.00;1075.20;;;;;;4924230;28;20042;-75
2021/05/01 10:40:51;;;;;;;46.45;22.27;;;768.00;1075.20;;;;;;4984077;28;20101;-70
2021/05/01 10:43:19;;;;;;;28.85;16.15;;;768.10;1100.80;;;;;;4975478;28;20092;-71
2021/05/01 10:45:50;;;;;;;25.83;14.32;;;768.10;1100.80;;;;;;4983479;28;20078;-72
2021/05/01 10:48:16;;;;;;;27.25;14.95;;;768.30;1100.80;;;;;;4983012;28;20031;-71
2021/05/01 10:50:42;;;;;;;67.22;46.28;;;768.40;1049.60;;;;;;4983439;28;20539;-71
2021/05/01 10:53:21;;;;;;;63.25;42.85;;;768.50;1075.20;;;;;;4984126;28;20085;-70
2021/05/01 10:55:50;;;;;;;130.25;99.97;;;768.70;1049.60;;;;;;4980890;28;20023;-74
2021/05/01 10:58:28;;;;;;;90.45;61.25;;;768.80;1049.60;;;;;;4981293;28;20037;-74
2021/05/01 11:00:54;;;;;;;59.65;46.92;;;768.90;1049.60;;;;;;4983794;28;20488;-71
2021/05/01 11:03:22;;;;;;;80.63;51.38;;;793.60;1049.60;;;;;;4973113;28;20054;-71
2021/05/01 11:05:50;;;;;;;81.95;45.13;;;793.60;1049.60;;;;;;4983832;28;20027;-72
2021/05/01 11:08:56;;;;;;;80.57;40.33;;;793.60;1049.60;;;;;;4985697;28;20050;-71
2021/05/01 11:11:32;;;;;;;80.35;37.60;;;793.60;1049.60;;;;;;4970342;28;20070;-71
2021/05/01 11:14:23;;;;;;;87.47;38.88;;;793.70;1049.60;;;;;;4980049;28;20066;-72
2021/05/01 11:17:00;;;;;;;71.40;35.00;;;793.70;1049.60;;;;;;4981857;28;20027;-72
2021/05/01 11:19:28;;;;;;;61.47;35.33;;;793.80;1024.00;;;;;;4971159;28;20045;-73
2021/05/01 11:21:56;;;;;;;126.65;35.38;;;793.80;1049.60;;;;;;4975201;28;20029;-72
2021/05/01 11:24:23;;;;;;;96.13;33.08;;;793.80;1024.00;;;;;;4975411;28;20472;-71
2021/05/01 11:26:50;;;;;;;70.38;30.90;;;793.90;1024.00;;;;;;4981637;28;20030;-72
2021/05/01 11:29:16;;;;;;;82.97;31.77;;;794.00;1024.00;;;;;;4993360;28;20038;-71
2021/05/01 11:31:45;;;;;;;297.05;236.07;;;794.10;1024.00;;;;;;4994610;28;20065;-72
2021/05/01 11:34:14;;;;;;;150.30;118.85;;;794.00;998.40;;;;;;4994686;28;20053;-72
2021/05/01 11:36:48;;;;;;;183.88;129.05;;;793.90;921.60;;;;;;4994494;28;20026;-72
2021/05/01 11:39:16;;;;;;;169.57;126.03;;;793.90;972.80;;;;;;4994348;28;20057;-72
2021/05/01 11:41:44;;;;;;;157.90;118.03;;;793.90;972.80;;;;;;4994638;28;20495;-72
2021/05/01 11:44:12;;;;;;;209.40;136.85;;;793.80;998.40;;;;;;4991268;28;20050;-71
2021/05/01 11:47:07;;;;;;;214.68;135.35;;;793.70;998.40;;;;;;4983640;28;20173;-70
2021/05/01 11:49:33;;;;;;;174.25;122.45;;;793.60;998.40;;;;;;4909204;29;20147;-71
2021/05/01 11:52:08;;;;;;;144.15;105.63;;;768.90;972.80;;;;;;4917530;29;20118;-71
2021/05/01 11:54:50;;;;;;;129.50;90.80;;;768.70;972.80;;;;;;4917139;29;20079;-71
2021/05/01 11:57:20;;;;;;;102.63;73.47;;;768.70;972.80;;;;;;4930605;29;20115;-71
2021/05/01 11:59:47;;;;;;;84.65;58.58;;;768.50;972.80;;;;;;4932829;29;20023;-73
2021/05/01 12:02:18;;;;;;;103.50;48.15;;;768.50;972.80;;;;;;4932982;29;20482;-71
2021/05/01 12:05:05;;;;;;;135.30;49.90;;;768.20;998.40;;;;;;4932876;29;20573;-71
2021/05/01 12:07:38;;;;;;;160.10;40.88;;;768.10;998.40;;;;;;4936445;29;20079;-74
2021/05/01 12:10:13;;;;;;;190.38;43.17;;;768.00;998.40;;;;;;4936732;29;20477;-70
2021/05/01 12:12:48;;;;;;;182.98;42.35;;;743.30;1024.00;;;;;;4934378;29;20084;-71